Time;durP1;ratioP1;P1;durP2;ratioP2;P2;SDS_P1;SDS_P2;PMS_P1;PMS_P2;Temp;Humidity;BMP_temperature;BMP_pressure;BME280_temperature;BME280_humidity;BME280_pressure;Samples;Min_cycle;Max_cycle;Signal;HPM_P1;HPM_P2
2023/03/18 00:01:16;;;;;;;86.42;68.25;;;26.50;90.70;;;;;;1798414;77;21294;-81
2023/03/18 00:04:01;;;;;;;98.35;68.42;;;26.50;87.40;;;;;;1809822;78;21171;-81
2023/03/18 00:06:45;;;;;;;95.92;73.02;;;26.50;87.30;;;;;;1796966;78;21176;-81
2023/03/18 00:09:21;;;;;;;88.47;67.67;;;26.50;87.70;;;;;;1797655;79;21156;-81
2023/03/18 00:11:55;;;;;;;91.78;68.12;;;26.50;87.30;;;;;;1811259;77;21128;-81
2023/03/18 00:14:45;;;;;;;92.08;67.92;;;26.60;87.40;;;;;;1831480;76;21188;-82
2023/03/18 00:17:21;;;;;;;85.12;66.02;;;26.60;87.40;;;;;;1854780;75;21145;-82
2023/03/18 00:20:37;;;;;;;82.97;64.97;;;26.60;87.40;;;;;;1840918;76;21187;-82
2023/03/18 00:23:13;;;;;;;84.52;66.10;;;26.60;87.20;;;;;;1842594;76;21105;-82
2023/03/18 00:26:03;;;;;;;87.70;68.97;;;26.70;87.70;;;;;;1858289;76;21168;-82
2023/03/18 00:28:56;;;;;;;80.42;66.45;;;26.80;86.60;;;;;;1825036;78;21230;-82
2023/03/18 00:31:28;;;;;;;82.45;67.15;;;26.80;86.10;;;;;;1831821;76;21274;-74
2023/03/18 00:34:24;;;;;;;89.30;67.42;;;26.80;85.80;;;;;;1860543;75;21256;-72
2023/03/18 00:36:56;;;;;;;81.97;65.70;;;26.90;85.50;;;;;;1837008;76;21688;-74
2023/03/18 00:39:31;;;;;;;88.10;66.67;;;26.90;85.30;;;;;;1848373;76;21200;-73
2023/03/18 00:42:09;;;;;;;82.43;67.20;;;27.00;84.90;;;;;;1853643;76;21137;-75
2023/03/18 00:44:57;;;;;;;80.20;61.42;;;27.10;84.40;;;;;;1815342;77;22032;-75
2023/03/18 00:47:48;;;;;;;78.70;60.88;;;27.10;83.60;;;;;;1840734;77;21172;-75
2023/03/18 00:50:37;;;;;;;76.45;60.48;;;27.20;82.60;;;;;;1840226;77;21221;-75
2023/03/18 00:53:09;;;;;;;77.97;59.83;;;27.30;82.50;;;;;;1835651;77;21223;-77
2023/03/18 00:55:45;;;;;;;;;;;27.30;81.40;;;;;;1853693;77;21269;-77
2023/03/18 00:58:17;;;;;;;69.12;54.77;;;27.40;81.40;;;;;;1846939;75;20619;-75
2023/03/18 01:00:50;;;;;;;73.57;56.20;;;27.50;80.00;;;;;;1840923;75;21404;-76
2023/03/18 01:03:41;;;;;;;73.02;56.88;;;27.60;79.60;;;;;;1846056;75;21683;-75
2023/03/18 01:06:33;;;;;;;69.70;54.25;;;27.60;79.10;;;;;;1828548;77;22094;-76
2023/03/18 01:09:09;;;;;;;75.75;56.48;;;27.70;79.20;;;;;;1861176;75;21145;-75
2023/03/18 01:12:03;;;;;;;77.17;56.75;;;27.70;79.40;;;;;;1843945;77;21254;-75
2023/03/18 01:14:38;;;;;;;70.72;56.95;;;27.80;79.50;;;;;;1838066;77;21156;-72
2023/03/18 01:17:21;;;;;;;88.62;59.98;;;27.80;79.60;;;;;;1839851;75;21260;-77
2023/03/18 01:20:13;;;;;;;79.65;56.18;;;27.90;79.90;;;;;;1764648;80;21188;-75
2023/03/18 01:22:45;;;;;;;73.50;55.73;;;27.90;79.60;;;;;;1849785;75;21147;-76
2023/03/18 01:25:18;;;;;;;63.63;52.20;;;28.00;79.30;;;;;;1844934;77;21184;-74
2023/03/18 01:28:13;;;;;;;66.00;52.67;;;28.00;79.30;;;;;;1848363;77;21230;-75
2023/03/18 01:30:56;;;;;;;64.50;50.73;;;28.00;78.10;;;;;;1855012;75;21234;-76
2023/03/18 01:33:32;;;;;;;59.65;49.60;;;28.00;77.60;;;;;;1836700;75;21109;-75
2023/03/18 01:36:10;;;;;;;64.75;51.18;;;28.00;77.00;;;;;;1840263;77;21218;-76
2023/03/18 01:39:05;;;;;;;62.08;49.65;;;28.10;76.70;;;;;;1845570;75;21717;-76
2023/03/18 01:41:52;;;;;;;62.83;49.88;;;28.10;76.00;;;;;;1859352;77;21219;-77
2023/03/18 01:44:43;;;;;;;61.30;48.70;;;28.20;76.00;;;;;;1852149;75;21208;-76
2023/03/18 01:47:25;;;;;;;59.85;47.95;;;28.20;75.70;;;;;;1837894;77;21703;-76
2023/03/18 01:50:17;;;;;;;63.95;48.40;;;28.20;75.40;;;;;;1851354;76;21640;-77
2023/03/18 01:52:52;;;;;;;64.65;50.28;;;28.20;75.00;;;;;;1870064;76;21129;-77
2023/03/18 01:55:48;;;;;;;64.12;49.88;;;28.30;75.70;;;;;;1866300;76;21372;-78
2023/03/18 01:58:31;;;;;;;64.60;49.03;;;28.30;76.10;;;;;;1837263;76;21854;-77
2023/03/18 02:01:14;;;;;;;64.77;47.23;;;28.40;75.10;;;;;;1850974;76;21226;-75
2023/03/18 02:03:47;;;;;;;65.90;50.55;;;28.40;74.90;;;;;;1866697;76;21635;-75
2023/03/18 02:06:20;;;;;;;61.55;50.25;;;28.40;75.50;;;;;;1816743;77;21549;-76
2023/03/18 02:09:09;;;;;;;66.25;50.58;;;28.50;76.00;;;;;;1848064;75;21219;-75
2023/03/18 02:11:48;;;;;;;66.42;47.83;;;28.60;75.80;;;;;;1790579;78;21184;-75
2023/03/18 02:14:24;;;;;;;52.55;45.33;;;28.70;74.60;;;;;;1838179;77;21246;-76
2023/03/18 02:17:18;;;;;;;57.50;46.00;;;28.70;74.00;;;;;;1843416;75;21246;-76
2023/03/18 02:20:11;;;;;;;56.88;45.45;;;28.80;73.90;;;;;;1779824;79;21251;-75
2023/03/18 02:22:54;;;;;;;53.78;44.05;;;28.90;73.90;;;;;;1858247;75;21163;-77
2023/03/18 02:26:05;;;;;;;56.15;41.25;;;29.00;72.10;;;;;;1847089;77;21367;-78
2023/03/18 02:28:58;;;;;;;54.85;41.60;;;29.10;72.20;;;;;;1865937;77;21194;-74
2023/03/18 02:31:31;;;;;;;58.30;42.85;;;29.20;71.70;;;;;;1858318;77;21117;-75
2023/03/18 02:34:26;;;;;;;56.98;43.75;;;29.20;70.90;;;;;;1853865;76;21194;-77
2023/03/18 02:36:59;;;;;;;55.63;43.15;;;29.40;70.60;;;;;;1805424;78;21759;-76
2023/03/18 02:39:50;;;;;;;53.63;43.35;;;29.40;71.40;;;;;;1833492;77;21963;-77
2023/03/18 02:42:43;;;;;;;53.17;43.63;;;29.50;70.10;;;;;;1852071;77;21702;-77
2023/03/18 02:45:44;;;;;;;53.87;43.40;;;29.60;69.50;;;;;;1847476;77;21980;-77
2023/03/18 02:48:22;;;;;;;54.88;43.58;;;29.60;70.50;;;;;;1854050;75;21244;-75
2023/03/18 02:51:07;;;;;;;57.00;43.98;;;29.70;70.00;;;;;;1841770;77;21156;-77
2023/03/18 02:53:57;;;;;;;55.03;43.38;;;29.70;70.20;;;;;;1841305;77;21234;-78
2023/03/18 02:56:47;;;;;;;52.78;42.55;;;29.80;70.20;;;;;;1842037;75;21986;-76
2023/03/18 02:59:20;;;;;;;62.20;47.75;;;29.90;71.10;;;;;;1842131;77;21403;-76
2023/03/18 03:02:10;;;;;;;55.55;42.85;;;29.90;69.70;;;;;;1850226;76;21156;-79
2023/03/18 03:04:59;;;;;;;53.95;43.20;;;30.00;69.80;;;;;;1838109;75;21175;-76
2023/03/18 03:07:31;;;;;;;53.23;42.65;;;30.10;69.80;;;;;;1858742;77;21195;-75
2023/03/18 03:10:05;;;;;;;51.37;43.17;;;30.20;69.80;;;;;;1840317;77;21141;-77
2023/03/18 03:12:44;;;;;;;54.93;42.78;;;30.30;69.30;;;;;;1844438;75;21148;-78
2023/03/18 03:15:16;;;;;;;51.25;42.17;;;30.40;68.80;;;;;;1872792;75;21119;-78
2023/03/18 03:17:50;;;;;;;58.80;41.42;;;30.40;68.50;;;;;;1841091;76;21896;-75
2023/03/18 03:20:39;;;;;;;56.20;40.60;;;30.60;68.80;;;;;;1844350;76;21495;-76
2023/03/18 03:23:28;;;;;;;51.85;39.98;;;30.70;67.90;;;;;;1853709;75;21146;-77
2023/03/18 03:26:13;;;;;;;45.10;39.33;;;30.80;67.60;;;;;;1865673;75;22140;-77
2023/03/18 03:28:51;;;;;;;49.20;39.80;;;30.90;66.60;;;;;;1835500;76;21155;-76
2023/03/18 03:31:41;;;;;;;46.88;39.40;;;31.00;67.60;;;;;;1837315;77;21171;-77
2023/03/18 03:34:30;;;;;;;53.65;39.98;;;;;;;;;;1788604;78;21829;-76
2023/03/18 03:37:37;;;;;;;47.73;40.63;;;31.30;64.30;;;;;;1857526;77;21140;-78
2023/03/18 03:40:25;;;;;;;45.73;38.75;;;;;;;;;;1906845;73;21154;-75
2023/03/18 03:43:14;;;;;;;49.77;38.75;;;31.50;63.40;;;;;;1891050;74;21152;-77
2023/03/18 03:46:05;;;;;;;44.40;38.50;;;31.60;64.30;;;;;;1892048;75;21161;-78
2023/03/18 03:48:37;;;;;;;47.88;38.30;;;31.70;64.10;;;;;;1921791;74;21149;-78
2023/03/18 03:51:08;;;;;;;47.58;38.00;;;31.80;64.10;;;;;;1927448;74;21189;-78
2023/03/18 03:53:44;;;;;;;47.88;38.20;;;31.90;63.60;;;;;;1916564;74;21205;-76
2023/03/18 03:56:18;;;;;;;48.55;40.65;;;31.90;63.00;;;;;;1910010;74;21142;-79
2023/03/18 04:02:26;;;;;;;47.17;39.73;;;32.00;63.00;;;;;;1863351;75;21196;-76
2023/03/18 04:05:07;;;;;;;43.30;37.25;;;32.10;63.60;;;;;;1858505;76;21152;-77
2023/03/18 04:07:58;;;;;;;49.65;39.63;;;32.20;63.10;;;;;;1868170;74;21250;-76
2023/03/18 04:10:46;;;;;;;48.95;39.53;;;32.30;62.80;;;;;;1873942;74;21152;-75
2023/03/18 04:13:35;;;;;;;51.80;39.80;;;32.30;62.50;;;;;;1856137;76;21204;-77
2023/03/18 04:16:24;;;;;;;49.03;39.73;;;32.40;62.20;;;;;;1873943;76;21185;-77
2023/03/18 04:18:56;;;;;;;46.13;37.70;;;32.50;62.00;;;;;;1860414;76;21190;-77
2023/03/18 04:21:31;;;;;;;44.53;39.43;;;32.60;62.00;;;;;;1865816;75;21156;-75
2023/03/18 04:24:17;;;;;;;43.63;37.38;;;32.70;61.30;;;;;;1870880;76;21168;-76
2023/03/18 04:27:12;;;;;;;44.70;39.00;;;32.80;61.80;;;;;;1858896;75;21617;-77
2023/03/18 04:30:09;;;;;;;48.75;39.42;;;32.80;60.30;;;;;;1911987;74;21161;-77
2023/03/18 04:32:42;;;;;;;42.80;38.17;;;32.80;60.50;;;;;;1856319;74;22020;-77
2023/03/18 04:35:15;;;;;;;47.53;39.00;;;32.90;61.70;;;;;;1870871;76;21266;-76
2023/03/18 04:38:05;;;;;;;48.33;36.88;;;32.90;60.80;;;;;;1867565;76;21214;-77
2023/03/18 04:40:41;;;;;;;44.05;37.40;;;33.00;60.40;;;;;;1869098;74;21215;-75
2023/03/18 04:43:30;;;;;;;53.48;39.85;;;33.20;59.90;;;;;;1875387;76;21458;-72
2023/03/18 04:46:02;;;;;;;51.83;38.75;;;33.20;59.60;;;;;;1871836;74;21217;-73
2023/03/18 04:48:52;;;;;;;48.23;39.15;;;33.40;59.90;;;;;;1877230;76;21112;-74
2023/03/18 04:51:43;;;;;;;47.70;39.95;;;33.50;59.20;;;;;;1859056;76;21261;-74
2023/03/18 04:54:17;;;;;;;49.55;37.78;;;33.60;59.20;;;;;;1857761;77;21239;-74
2023/03/18 04:56:48;;;;;;;42.45;36.05;;;33.70;58.50;;;;;;1862269;74;21148;-74
2023/03/18 04:59:19;;;;;;;44.60;36.53;;;33.70;58.80;;;;;;1920107;74;21900;-74
2023/03/18 05:01:50;;;;;;;53.38;38.95;;;33.80;57.90;;;;;;1890608;74;21910;-75
2023/03/18 05:04:22;;;;;;;42.67;35.48;;;33.80;58.80;;;;;;1883570;74;21164;-73
2023/03/18 05:06:53;;;;;;;45.15;35.55;;;33.80;56.80;;;;;;1867577;76;21141;-74
2023/03/18 05:09:24;;;;;;;41.30;34.95;;;33.90;57.50;;;;;;1883201;74;21225;-73
2023/03/18 05:11:56;;;;;;;45.75;34.38;;;34.00;57.10;;;;;;1862361;74;21223;-74
2023/03/18 05:14:31;;;;;;;41.92;33.60;;;34.00;57.40;;;;;;1873438;75;21571;-74
2023/03/18 05:17:04;;;;;;;41.95;35.15;;;34.00;56.60;;;;;;1876582;76;21147;-75
2023/03/18 05:19:37;;;;;;;39.05;32.55;;;34.10;55.90;;;;;;1861624;75;21132;-75
2023/03/18 05:22:27;;;;;;;39.75;33.23;;;34.00;55.60;;;;;;1918138;73;21099;-75
2023/03/18 05:25:16;;;;;;;43.00;33.10;;;34.10;55.10;;;;;;1850561;76;21992;-73
2023/03/18 05:27:48;;;;;;;39.13;34.60;;;34.10;55.00;;;;;;1857536;77;21120;-75
2023/03/18 05:30:19;;;;;;;42.15;35.58;;;34.20;55.50;;;;;;1847989;76;21879;-75
2023/03/18 05:32:51;;;;;;;37.28;33.30;;;34.20;56.30;;;;;;1879409;74;21777;-75
2023/03/18 05:35:22;;;;;;;40.38;33.73;;;34.10;55.80;;;;;;1850590;76;21936;-74
2023/03/18 05:37:53;;;;;;;42.83;34.18;;;34.10;55.10;;;;;;1859526;76;21101;-74
2023/03/18 05:40:24;;;;;;;42.95;32.45;;;34.10;55.90;;;;;;1855237;76;21588;-75
2023/03/18 05:42:55;;;;;;;34.08;29.67;;;34.10;54.10;;;;;;1857611;77;21125;-74
2023/03/18 05:45:32;;;;;;;37.67;31.40;;;34.00;52.50;;;;;;1862656;76;21125;-75
2023/03/18 05:48:21;;;;;;;36.50;31.73;;;34.00;52.70;;;;;;1885976;74;21875;-74
2023/03/18 05:51:11;;;;;;;36.58;30.35;;;34.10;52.80;;;;;;1851209;76;21314;-75
2023/03/18 05:54:02;;;;;;;33.35;29.82;;;34.10;51.80;;;;;;1863956;76;21624;-74
2023/03/18 05:56:36;;;;;;;35.33;29.87;;;34.20;51.80;;;;;;1847336;76;21160;-75
2023/03/18 05:59:29;;;;;;;35.88;32.08;;;34.30;51.90;;;;;;1919599;74;21130;-76
2023/03/18 06:02:20;;;;;;;35.75;30.00;;;34.30;53.50;;;;;;1819323;76;21176;-75
2023/03/18 06:04:53;;;;;;;34.05;30.45;;;34.30;53.40;;;;;;1818308;77;21267;-73
2023/03/18 06:07:49;;;;;;;36.53;32.67;;;34.40;53.30;;;;;;1871378;74;21179;-76
2023/03/18 06:10:42;;;;;;;36.45;32.55;;;34.50;52.30;;;;;;1880479;76;21714;-76
2023/03/18 06:13:32;;;;;;;37.00;30.95;;;34.50;52.20;;;;;;1857231;76;21120;-75
2023/03/18 06:16:23;;;;;;;38.60;31.40;;;34.50;52.30;;;;;;1880382;76;21164;-76
2023/03/18 06:18:54;;;;;;;37.20;31.12;;;34.50;52.20;;;;;;1869394;76;21473;-75
2023/03/18 06:21:26;;;;;;;35.90;31.42;;;34.60;52.40;;;;;;1857624;77;21751;-75
2023/03/18 06:23:57;;;;;;;40.20;31.30;;;34.70;51.80;;;;;;1858985;75;21827;-75
2023/03/18 06:26:29;;;;;;;34.92;31.10;;;34.70;52.40;;;;;;1887086;76;21136;-76
2023/03/18 06:29:00;;;;;;;36.08;30.55;;;34.80;51.70;;;;;;1882382;75;21172;-75
2023/03/18 06:31:31;;;;;;;35.80;29.85;;;34.80;50.10;;;;;;1887718;74;21176;-75
2023/03/18 06:34:16;;;;;;;43.60;31.50;;;34.80;50.40;;;;;;1860079;75;21253;-75
2023/03/18 06:37:06;;;;;;;35.17;29.18;;;34.80;50.90;;;;;;1877998;75;21303;-76
2023/03/18 06:39:43;;;;;;;33.98;30.45;;;34.90;50.60;;;;;;1887309;76;21643;-76
2023/03/18 06:42:38;;;;;;;35.15;30.08;;;34.90;50.70;;;;;;1884214;74;21192;-76
2023/03/18 06:45:11;;;;;;;40.08;31.77;;;34.80;49.90;;;;;;1887094;74;21108;-76
2023/03/18 06:47:54;;;;;;;39.73;31.52;;;34.80;51.80;;;;;;1868723;74;21697;-75
2023/03/18 06:50:25;;;;;;;35.60;31.55;;;34.80;52.50;;;;;;1856449;77;21148;-73
2023/03/18 06:52:59;;;;;;;34.73;31.12;;;34.80;52.00;;;;;;1881490;74;21662;-76
2023/03/18 06:55:52;;;;;;;34.83;31.12;;;34.80;51.50;;;;;;1881029;75;21198;-75
2023/03/18 06:58:44;;;;;;;34.10;29.30;;;34.80;51.60;;;;;;1859913;74;21464;-76
2023/03/18 07:01:34;;;;;;;34.90;30.45;;;34.80;51.70;;;;;;1864077;75;21171;-74
2023/03/18 07:04:12;;;;;;;38.30;30.02;;;34.80;51.80;;;;;;1876123;75;21808;-77
2023/03/18 07:07:07;;;;;;;40.97;30.37;;;34.80;52.00;;;;;;1876050;76;21292;-75
2023/03/18 07:09:56;;;;;;;34.43;29.02;;;34.70;52.60;;;;;;1891557;76;21100;-75
2023/03/18 07:12:46;;;;;;;37.60;30.95;;;34.70;51.60;;;;;;1879717;76;21218;-74
2023/03/18 07:15:44;;;;;;;36.07;30.70;;;34.70;52.10;;;;;;1872372;74;21228;-73
2023/03/18 07:18:33;;;;;;;36.30;29.98;;;34.60;52.10;;;;;;1887076;74;21144;-74
2023/03/18 07:21:38;;;;;;;36.10;31.02;;;34.60;52.10;;;;;;1854874;74;21124;-74
2023/03/18 07:24:10;;;;;;;42.53;36.83;;;34.50;52.20;;;;;;1870004;74;21734;-74
2023/03/18 07:26:41;;;;;;;34.23;29.65;;;34.50;51.80;;;;;;1863129;74;21237;-74
2023/03/18 07:29:13;;;;;;;34.67;28.98;;;34.50;51.80;;;;;;1886760;76;21156;-75
2023/03/18 07:31:44;;;;;;;33.25;28.47;;;34.40;51.30;;;;;;1887862;75;21168;-76
2023/03/18 07:34:26;;;;;;;33.98;28.92;;;34.40;50.30;;;;;;1879226;74;21183;-76
2023/03/18 07:36:57;;;;;;;36.20;30.23;;;34.40;50.20;;;;;;1827628;77;21634;-73
2023/03/18 07:39:28;;;;;;;32.98;28.50;;;34.40;50.50;;;;;;1867747;76;21198;-74
2023/03/18 07:42:17;;;;;;;32.88;29.00;;;34.40;50.40;;;;;;1882622;75;21433;-75
2023/03/18 07:45:12;;;;;;;32.17;28.90;;;34.40;50.40;;;;;;1878209;75;21447;-74
2023/03/18 07:48:16;;;;;;;32.03;28.62;;;34.40;49.50;;;;;;1874086;76;21172;-75
2023/03/18 07:51:07;;;;;;;34.50;27.87;;;34.40;49.70;;;;;;1873205;76;21940;-72
2023/03/18 07:53:56;;;;;;;32.33;28.90;;;34.30;48.70;;;;;;1808807;77;21243;-74
2023/03/18 07:56:45;;;;;;;34.25;29.85;;;34.30;49.50;;;;;;1874867;74;21105;-73
2023/03/18 07:59:36;;;;;;;33.75;28.65;;;34.30;49.50;;;;;;1847965;74;21187;-73
2023/03/18 08:02:30;;;;;;;36.05;29.07;;;34.30;50.00;;;;;;1865287;74;21151;-73
2023/03/18 08:05:22;;;;;;;34.15;29.07;;;34.30;49.70;;;;;;1870441;74;21660;-73
2023/03/18 08:08:16;;;;;;;31.68;28.27;;;34.40;49.10;;;;;;1786786;79;21270;-74
2023/03/18 08:11:15;;;;;;;32.90;29.23;;;34.40;49.60;;;;;;1853909;76;21149;-73
2023/03/18 08:14:00;;;;;;;31.70;28.27;;;34.40;49.30;;;;;;1851676;76;21190;-73
2023/03/18 08:16:33;;;;;;;32.42;28.55;;;34.40;49.00;;;;;;1865827;75;21310;-73
2023/03/18 08:19:05;;;;;;;32.70;29.05;;;34.30;49.40;;;;;;1870913;76;22027;-74
2023/03/18 08:21:36;;;;;;;37.75;29.10;;;34.30;49.70;;;;;;1877950;76;21145;-73
2023/03/18 08:24:08;;;;;;;32.65;29.10;;;34.30;48.80;;;;;;1864213;76;21206;-73
2023/03/18 08:26:40;;;;;;;31.45;28.15;;;34.30;48.70;;;;;;1870133;76;21962;-74
2023/03/18 08:29:12;;;;;;;31.75;28.32;;;34.30;48.50;;;;;;1880490;76;21176;-73
2023/03/18 08:32:06;;;;;;;30.97;27.48;;;34.30;48.70;;;;;;1841023;77;21180;-74
2023/03/18 08:34:46;;;;;;;31.48;28.20;;;34.30;49.40;;;;;;1871061;76;21164;-73
2023/03/18 08:37:38;;;;;;;35.70;28.50;;;34.30;48.80;;;;;;1879681;76;21148;-76
2023/03/18 08:40:27;;;;;;;33.55;28.42;;;34.30;49.20;;;;;;1834082;78;21197;-75
2023/03/18 08:43:26;;;;;;;32.80;27.50;;;34.30;49.40;;;;;;1833120;76;21463;-75
2023/03/18 08:46:27;;;;;;;32.08;27.73;;;34.20;49.10;;;;;;1806655;78;21151;-75
2023/03/18 08:49:19;;;;;;;34.95;28.02;;;34.20;48.70;;;;;;1855642;76;21196;-75
2023/03/18 08:52:09;;;;;;;31.70;27.65;;;34.20;48.70;;;;;;1796216;78;22001;-75
2023/03/18 08:54:56;;;;;;;33.88;28.07;;;34.20;48.90;;;;;;1844294;78;21266;-76
2023/03/18 08:57:28;;;;;;;34.27;28.40;;;34.20;48.70;;;;;;1844310;78;21221;-76
2023/03/18 08:59:59;;;;;;;30.15;26.95;;;34.20;49.40;;;;;;1844266;77;21216;-72
2023/03/18 09:02:49;;;;;;;30.75;27.62;;;34.20;48.40;;;;;;1842818;77;21170;-85
2023/03/18 09:05:40;;;;;;;29.72;26.60;;;34.20;48.00;;;;;;1832267;77;22116;-74
2023/03/18 09:08:42;;;;;;;30.85;26.65;;;34.20;47.40;;;;;;1825429;78;21994;-75
2023/03/18 09:11:29;;;;;;;30.23;26.82;;;34.10;47.50;;;;;;1847494;76;21120;-83
2023/03/18 09:14:19;;;;;;;35.35;27.37;;;34.10;47.90;;;;;;1830235;78;21204;-85
2023/03/18 09:17:17;;;;;;;32.25;28.27;;;34.10;48.30;;;;;;1847980;74;21431;-86
2023/03/18 09:19:56;;;;;;;33.00;26.95;;;34.00;48.50;;;;;;1890331;75;21131;-85
2023/03/18 09:22:50;;;;;;;30.68;27.37;;;34.00;48.70;;;;;;1897026;74;21127;-85
2023/03/18 09:25:41;;;;;;;33.23;29.40;;;34.00;49.30;;;;;;1859418;77;21165;-86
2023/03/18 09:28:13;;;;;;;32.98;28.87;;;34.00;49.30;;;;;;1886093;76;21143;-85
2023/03/18 09:30:43;;;;;;;31.02;27.73;;;34.00;49.20;;;;;;1875985;75;21204;-87
2023/03/18 09:33:14;;;;;;;31.45;28.20;;;34.00;49.70;;;;;;1875424;75;21165;-86
2023/03/18 09:35:45;;;;;;;35.43;30.10;;;34.00;50.20;;;;;;1874352;75;21156;-87
2023/03/18 09:38:19;;;;;;;32.83;29.02;;;34.00;50.70;;;;;;1856340;77;21090;-87
2023/03/18 09:41:19;;;;;;;31.85;28.60;;;34.00;50.70;;;;;;1911894;75;21212;-86
2023/03/18 09:43:56;;;;;;;33.83;28.57;;;33.90;50.40;;;;;;1857717;75;21822;-87
2023/03/18 09:47:10;;;;;;;31.48;27.75;;;33.90;49.20;;;;;;1831223;77;21123;-86
2023/03/18 09:50:30;;;;;;;31.87;28.23;;;33.90;49.50;;;;;;1847121;77;21242;-85
2023/03/18 09:53:25;;;;;;;40.03;31.97;;;33.90;50.10;;;;;;1862882;75;21553;-85
2023/03/18 09:56:25;;;;;;;36.90;29.00;;;33.80;50.00;;;;;;1884560;76;21195;-85
2023/03/18 09:59:26;;;;;;;34.50;27.60;;;33.80;50.20;;;;;;1883359;76;21164;-87
2023/03/18 10:01:59;;;;;;;30.45;27.10;;;33.70;50.60;;;;;;1857542;76;21034;-85
2023/03/18 10:04:38;;;;;;;33.10;27.55;;;33.70;50.80;;;;;;1857483;76;21116;-86
2023/03/18 10:07:14;;;;;;;31.93;28.20;;;33.70;50.90;;;;;;1853946;77;21138;-84
2023/03/18 10:09:47;;;;;;;33.70;27.93;;;33.70;51.40;;;;;;1850028;77;21214;-86
2023/03/18 10:12:24;;;;;;;31.65;28.02;;;33.70;51.20;;;;;;1887034;76;21227;-84
2023/03/18 10:15:13;;;;;;;;;;;33.60;50.90;;;;;;1865912;76;21187;-86
2023/03/18 10:17:50;;;;;;;34.43;27.87;;;33.60;51.10;;;;;;1862186;77;20173;-84
2023/03/18 10:21:05;;;;;;;32.13;28.07;;;33.60;50.80;;;;;;1862429;76;21203;-86
2023/03/18 10:24:12;;;;;;;33.70;28.05;;;33.60;50.90;;;;;;1852767;76;21192;-86
2023/03/18 10:27:17;;;;;;;35.52;28.15;;;33.50;50.70;;;;;;1857933;76;21189;-85
2023/03/18 10:30:30;;;;;;;31.68;28.17;;;33.50;51.00;;;;;;1852933;76;21175;-84
2023/03/18 10:33:28;;;;;;;34.73;28.47;;;33.50;51.00;;;;;;1858368;76;21237;-85
2023/03/18 10:36:37;;;;;;;31.40;28.12;;;33.40;50.80;;;;;;1886319;76;21660;-85
2023/03/18 10:39:28;;;;;;;35.70;29.67;;;33.40;50.80;;;;;;1877998;76;21140;-86
2023/03/18 10:42:23;;;;;;;33.33;28.70;;;33.40;51.00;;;;;;1888784;76;21168;-86
2023/03/18 10:45:23;;;;;;;32.15;27.37;;;33.30;51.00;;;;;;1867090;76;21172;-86
2023/03/18 10:48:19;;;;;;;32.23;28.73;;;33.30;51.10;;;;;;1888986;76;21156;-86
2023/03/18 10:51:28;;;;;;;34.35;27.80;;;33.30;51.20;;;;;;1863780;74;21208;-88
2023/03/18 10:54:32;;;;;;;32.53;28.30;;;33.20;51.10;;;;;;1855691;74;21258;-86
2023/03/18 10:57:21;;;;;;;32.75;28.52;;;33.20;51.30;;;;;;1847102;77;21729;-87
2023/03/18 10:59:52;;;;;;;31.87;28.57;;;33.10;51.40;;;;;;1860583;75;21182;-87
2023/03/18 11:02:28;;;;;;;33.80;28.50;;;33.10;51.10;;;;;;1859019;77;21184;-87
2023/03/18 11:05:03;;;;;;;35.85;28.98;;;33.10;51.50;;;;;;1873375;76;21144;-87
2023/03/18 11:07:34;;;;;;;30.37;27.13;;;33.00;51.40;;;;;;1883460;75;21253;-87
2023/03/18 11:10:20;;;;;;;34.73;27.95;;;33.00;51.50;;;;;;1868548;75;21631;-86
2023/03/18 11:13:01;;;;;;;38.35;29.02;;;33.00;51.70;;;;;;1868345;75;21268;-87
2023/03/18 11:15:55;;;;;;;33.33;27.58;;;33.00;52.00;;;;;;1825991;77;21266;-86
2023/03/18 11:18:33;;;;;;;35.33;28.90;;;32.90;52.00;;;;;;1858436;74;21093;-87
2023/03/18 11:21:16;;;;;;;35.35;28.92;;;32.90;52.20;;;;;;1877136;76;21171;-87
2023/03/18 11:24:23;;;;;;;33.98;27.75;;;32.80;52.20;;;;;;1885036;76;21340;-88
2023/03/18 11:26:57;;;;;;;34.18;28.77;;;32.80;52.40;;;;;;1866864;76;21233;-86
2023/03/18 11:29:51;;;;;;;34.27;28.67;;;32.80;52.50;;;;;;1889381;76;21194;-85
2023/03/18 11:32:40;;;;;;;36.45;28.57;;;32.70;52.70;;;;;;1882756;76;21217;-83
2023/03/18 11:35:53;;;;;;;33.60;29.10;;;32.70;53.00;;;;;;1869667;76;21215;-83
2023/03/18 11:38:43;;;;;;;34.70;28.55;;;32.70;53.10;;;;;;1888101;75;21176;-85
2023/03/18 11:41:41;;;;;;;38.35;31.00;;;32.60;53.30;;;;;;1859644;76;21152;-85
2023/03/18 11:44:36;;;;;;;32.90;29.40;;;32.60;53.60;;;;;;1889686;76;21440;-85
2023/03/18 11:47:27;;;;;;;38.17;31.80;;;32.60;53.70;;;;;;1882263;74;21215;-85
2023/03/18 11:50:26;;;;;;;35.13;31.30;;;32.60;53.90;;;;;;1795657;80;21201;-85
2023/03/18 11:53:20;;;;;;;34.38;30.25;;;32.50;53.80;;;;;;1878299;74;21179;-86
2023/03/18 11:56:09;;;;;;;36.23;30.20;;;32.50;53.90;;;;;;1899116;74;21620;-84
2023/03/18 11:58:54;;;;;;;38.08;30.12;;;32.50;54.10;;;;;;1921728;73;21258;-84
2023/03/18 12:01:43;;;;;;;40.52;31.17;;;32.40;54.10;;;;;;1925040;74;21627;-85
2023/03/18 12:04:36;;;;;;;35.55;30.85;;;32.40;54.10;;;;;;1908533;74;21200;-86
2023/03/18 12:07:32;;;;;;;37.70;31.70;;;32.40;54.20;;;;;;1876132;76;21263;-84
2023/03/18 12:10:13;;;;;;;37.10;33.15;;;32.40;54.50;;;;;;1860413;77;21073;-84
2023/03/18 12:12:49;;;;;;;;;;;32.40;54.60;;;;;;1870947;76;21225;-84
2023/03/18 12:15:42;;;;;;;37.73;31.50;;;32.30;54.80;;;;;;1879223;76;20204;-83
2023/03/18 12:18:41;;;;;;;36.58;31.45;;;32.30;54.90;;;;;;1879220;76;21278;-85
2023/03/18 12:21:29;;;;;;;35.45;31.02;;;32.30;55.20;;;;;;1878031;76;21203;-84
2023/03/18 12:24:26;;;;;;;38.70;32.25;;;32.30;55.30;;;;;;1866491;76;21581;-84
2023/03/18 12:27:14;;;;;;;41.00;31.87;;;32.20;55.30;;;;;;1856443;75;21218;-83
2023/03/18 12:30:13;;;;;;;36.73;31.80;;;32.20;55.40;;;;;;1846404;77;21124;-84
2023/03/18 12:33:22;;;;;;;41.35;33.83;;;32.20;55.30;;;;;;1886156;76;21128;-82
2023/03/18 12:36:00;;;;;;;47.05;35.92;;;32.20;55.30;;;;;;1875296;76;21433;-84
2023/03/18 12:38:43;;;;;;;39.40;34.48;;;32.20;55.20;;;;;;1890616;74;21414;-85
2023/03/18 12:41:32;;;;;;;39.75;34.55;;;32.20;55.20;;;;;;1864938;75;21196;-85
2023/03/18 12:44:36;;;;;;;38.92;32.70;;;32.10;55.00;;;;;;1875273;74;21191;-84
2023/03/18 12:47:20;;;;;;;41.48;32.98;;;32.10;54.90;;;;;;1888770;75;21145;-83
2023/03/18 12:50:28;;;;;;;38.50;32.25;;;32.10;55.00;;;;;;1850596;75;21193;-84
2023/03/18 12:53:25;;;;;;;36.83;32.15;;;32.10;55.00;;;;;;1862790;75;21261;-85
2023/03/18 12:56:21;;;;;;;35.20;31.07;;;32.00;55.20;;;;;;1858069;77;21053;-82
2023/03/18 12:59:02;;;;;;;36.63;31.07;;;32.10;55.50;;;;;;1756854;80;21331;-85
2023/03/18 13:01:50;;;;;;;38.05;32.48;;;32.00;56.40;;;;;;1836270;77;21175;-85
2023/03/18 13:04:25;;;;;;;37.33;31.73;;;32.00;55.90;;;;;;1876699;76;21719;-86
2023/03/18 13:07:14;;;;;;;38.58;33.28;;;32.00;56.00;;;;;;1889610;74;21163;-85
2023/03/18 13:09:51;;;;;;;40.00;32.98;;;31.90;56.20;;;;;;1906354;75;21151;-85
2023/03/18 13:12:25;;;;;;;41.05;32.93;;;31.90;56.30;;;;;;1904305;74;21136;-84
2023/03/18 13:15:22;;;;;;;45.10;32.85;;;31.90;56.60;;;;;;1907057;74;21118;-84
2023/03/18 13:18:04;;;;;;;39.10;32.75;;;31.90;56.90;;;;;;1873821;76;21169;-84
2023/03/18 13:20:41;;;;;;;38.98;34.00;;;31.80;57.00;;;;;;1905354;74;21139;-85
2023/03/18 13:23:57;;;;;;;41.92;32.83;;;31.80;57.40;;;;;;1831443;78;21155;-84
2023/03/18 13:27:01;;;;;;;42.23;32.53;;;31.80;57.50;;;;;;1888358;75;21156;-85
2023/03/18 13:29:58;;;;;;;39.95;33.40;;;31.80;57.60;;;;;;1811802;78;21432;-86
2023/03/18 13:33:16;;;;;;;38.23;33.55;;;31.70;57.70;;;;;;1891263;75;21136;-84
2023/03/18 13:35:57;;;;;;;40.85;32.48;;;31.70;57.80;;;;;;1905652;75;21164;-85
2023/03/18 13:38:32;;;;;;;39.45;32.25;;;31.70;57.80;;;;;;1904742;75;21233;-85
2023/03/18 13:41:59;;;;;;;38.15;33.83;;;31.60;57.70;;;;;;1903719;74;21114;-85
2023/03/18 13:45:09;;;;;;;44.85;32.23;;;31.60;57.50;;;;;;1870615;75;21187;-85
2023/03/18 13:47:46;;;;;;;41.23;33.18;;;31.60;57.50;;;;;;1874603;75;21635;-85
2023/03/18 13:50:24;;;;;;;39.08;32.78;;;31.50;57.50;;;;;;1901642;74;21204;-84
2023/03/18 13:53:25;;;;;;;41.95;33.40;;;31.50;57.60;;;;;;1914230;74;21200;-85
2023/03/18 13:56:42;;;;;;;40.48;33.45;;;31.50;57.80;;;;;;1921821;74;21688;-83
2023/03/18 13:59:36;;;;;;;46.88;34.33;;;31.40;57.80;;;;;;1917248;74;21126;-84
2023/03/18 14:02:46;;;;;;;44.13;35.28;;;31.40;58.00;;;;;;1925311;74;21123;-84
2023/03/18 14:05:40;;;;;;;44.63;36.20;;;31.40;58.30;;;;;;1927892;74;21269;-85